sensor_id;sensor_type;location;lat;lon;timestamp;pressure;altitude;pressure_sealevel;temperature
76901;BMP280;65859;43.020;25.096;2023-11-21T00:01:16;99150.06;;;5.23
76901;BMP280;65859;43.020;25.096;2023-11-21T00:04:01;99152.63;;;5.28
76901;BMP280;65859;43.020;25.096;2023-11-21T00:06:46;99153.19;;;5.06
76901;BMP280;65859;43.020;25.096;2023-11-21T00:09:32;99151.25;;;4.93
76901;BMP280;65859;43.020;25.096;2023-11-21T00:12:16;99147.56;;;4.70
76901;BMP280;65859;43.020;25.096;2023-11-21T00:15:02;99120.63;;;4.83
76901;BMP280;65859;43.020;25.096;2023-11-21T00:17:50;99145.72;;;5.13
76901;BMP280;65859;43.020;25.096;2023-11-21T00:20:36;99131.16;;;5.40
76901;BMP280;65859;43.020;25.096;2023-11-21T00:23:20;99130.44;;;5.34
76901;BMP280;65859;43.020;25.096;2023-11-21T00:26:05;99132.56;;;5.32
76901;BMP280;65859;43.020;25.096;2023-11-21T00:28:50;99135.97;;;5.33
76901;BMP280;65859;43.020;25.096;2023-11-21T00:31:35;99148.94;;;5.29
76901;BMP280;65859;43.020;25.096;2023-11-21T00:34:23;99141.75;;;5.35
76901;BMP280;65859;43.020;25.096;2023-11-21T00:37:08;99146.66;;;5.22
76901;BMP280;65859;43.020;25.096;2023-11-21T00:39:53;99148.25;;;5.18
76901;BMP280;65859;43.020;25.096;2023-11-21T00:42:37;99146.78;;;5.12
76901;BMP280;65859;43.020;25.096;2023-11-21T00:45:22;99150.50;;;4.68
76901;BMP280;65859;43.020;25.096;2023-11-21T00:48:07;99147.34;;;4.42
76901;BMP280;65859;43.020;25.096;2023-11-21T00:50:54;99145.13;;;4.55
76901;BMP280;65859;43.020;25.096;2023-11-21T00:53:40;99145.66;;;4.57
76901;BMP280;65859;43.020;25.096;2023-11-21T00:56:25;99146.00;;;4.45
76901;BMP280;65859;43.020;25.096;2023-11-21T00:59:09;99139.97;;;4.44
76901;BMP280;65859;43.020;25.096;2023-11-21T01:01:55;99143.72;;;4.86
76901;BMP280;65859;43.020;25.096;2023-11-21T01:04:40;99135.34;;;4.36
76901;BMP280;65859;43.020;25.096;2023-11-21T01:07:25;99137.53;;;4.53
76901;BMP280;65859;43.020;25.096;2023-11-21T01:10:10;99132.31;;;4.72
76901;BMP280;65859;43.020;25.096;2023-11-21T01:12:55;99134.25;;;4.85
76901;BMP280;65859;43.020;25.096;2023-11-21T01:15:39;99135.81;;;4.86
76901;BMP280;65859;43.020;25.096;2023-11-21T01:18:24;99131.56;;;4.66
76901;BMP280;65859;43.020;25.096;2023-11-21T01:21:15;99131.56;;;4.66
76901;BMP280;65859;43.020;25.096;2023-11-21T01:24:00;99128.06;;;3.99
76901;BMP280;65859;43.020;25.096;2023-11-21T01:26:45;99135.22;;;4.46
76901;BMP280;65859;43.020;25.096;2023-11-21T01:29:31;99127.25;;;4.57
76901;BMP280;65859;43.020;25.096;2023-11-21T01:32:15;99120.66;;;4.78
76901;BMP280;65859;43.020;25.096;2023-11-21T01:35:00;99118.41;;;4.47
76901;BMP280;65859;43.020;25.096;2023-11-21T01:37:45;99119.97;;;4.48
76901;BMP280;65859;43.020;25.096;2023-11-21T01:40:30;99120.53;;;4.45
76901;BMP280;65859;43.020;25.096;2023-11-21T01:43:15;99113.94;;;4.72
76901;BMP280;65859;43.020;25.096;2023-11-21T01:46:00;99119.41;;;4.52
76901;BMP280;65859;43.020;25.096;2023-11-21T01:48:45;99112.66;;;4.45
76901;BMP280;65859;43.020;25.096;2023-11-21T01:51:32;99117.66;;;4.66
76901;BMP280;65859;43.020;25.096;2023-11-21T01:54:18;99114.44;;;4.50
76901;BMP280;65859;43.020;25.096;2023-11-21T01:57:04;99111.59;;;4.46
76901;BMP280;65859;43.020;25.096;2023-11-21T01:59:52;99114.94;;;4.28
76901;BMP280;65859;43.020;25.096;2023-11-21T02:02:38;99113.88;;;3.71
76901;BMP280;65859;43.020;25.096;2023-11-21T02:05:23;99114.22;;;3.93
76901;BMP280;65859;43.020;25.096;2023-11-21T02:08:08;99122.28;;;3.73
76901;BMP280;65859;43.020;25.096;2023-11-21T02:10:54;99119.41;;;4.28
76901;BMP280;65859;43.020;25.096;2023-11-21T02:13:39;99114.41;;;3.73
76901;BMP280;65859;43.020;25.096;2023-11-21T02:16:27;99109.84;;;3.84
76901;BMP280;65859;43.020;25.096;2023-11-21T02:19:18;99111.22;;;4.05
76901;BMP280;65859;43.020;25.096;2023-11-21T02:22:15;99113.88;;;4.00
76901;BMP280;65859;43.020;25.096;2023-11-21T02:25:01;99103.44;;;4.19
76901;BMP280;65859;43.020;25.096;2023-11-21T02:27:45;99101.50;;;4.06
76901;BMP280;65859;43.020;25.096;2023-11-21T02:30:33;99107.84;;;4.29
76901;BMP280;65859;43.020;25.096;2023-11-21T02:33:17;99108.00;;;4.37
76901;BMP280;65859;43.020;25.096;2023-11-21T02:36:04;99089.69;;;4.32
76901;BMP280;65859;43.020;25.096;2023-11-21T02:38:49;99107.66;;;4.20
76901;BMP280;65859;43.020;25.096;2023-11-21T02:41:33;99100.06;;;3.94
76901;BMP280;65859;43.020;25.096;2023-11-21T02:44:19;99102.97;;;3.88
76901;BMP280;65859;43.020;25.096;2023-11-21T02:47:04;99092.69;;;3.96
76901;BMP280;65859;43.020;25.096;2023-11-21T02:49:51;99090.69;;;3.05
76901;BMP280;65859;43.020;25.096;2023-11-21T02:52:38;99090.94;;;3.08
76901;BMP280;65859;43.020;25.096;2023-11-21T02:55:24;99094.91;;;3.50
76901;BMP280;65859;43.020;25.096;2023-11-21T02:58:09;99101.22;;;3.44
76901;BMP280;65859;43.020;25.096;2023-11-21T03:00:54;99105.94;;;3.42
76901;BMP280;65859;43.020;25.096;2023-11-21T03:03:39;99100.56;;;3.23
76901;BMP280;65859;43.020;25.096;2023-11-21T03:06:24;99104.19;;;3.32
76901;BMP280;65859;43.020;25.096;2023-11-21T03:09:09;99100.78;;;3.27
76901;BMP280;65859;43.020;25.096;2023-11-21T03:11:54;99105.13;;;3.81
76901;BMP280;65859;43.020;25.096;2023-11-21T03:14:40;99108.16;;;3.64
76901;BMP280;65859;43.020;25.096;2023-11-21T03:17:25;99100.44;;;3.78
76901;BMP280;65859;43.020;25.096;2023-11-21T03:20:10;99096.53;;;3.75
76901;BMP280;65859;43.020;25.096;2023-11-21T03:22:56;99097.47;;;3.55
76901;BMP280;65859;43.020;25.096;2023-11-21T03:25:41;99100.06;;;3.21
76901;BMP280;65859;43.020;25.096;2023-11-21T03:28:26;99094.78;;;2.71
76901;BMP280;65859;43.020;25.096;2023-11-21T03:31:15;99098.28;;;2.52
76901;BMP280;65859;43.020;25.096;2023-11-21T03:34:02;99093.44;;;2.79
76901;BMP280;65859;43.020;25.096;2023-11-21T03:36:47;99081.63;;;2.92
76901;BMP280;65859;43.020;25.096;2023-11-21T03:39:32;99085.50;;;3.00
76901;BMP280;65859;43.020;25.096;2023-11-21T03:42:16;99079.25;;;2.95
76901;BMP280;65859;43.020;25.096;2023-11-21T03:45:01;99088.81;;;3.15
76901;BMP280;65859;43.020;25.096;2023-11-21T03:47:48;99089.53;;;3.60
76901;BMP280;65859;43.020;25.096;2023-11-21T03:50:33;99094.69;;;3.41
76901;BMP280;65859;43.020;25.096;2023-11-21T03:53:19;99103.22;;;3.18
76901;BMP280;65859;43.020;25.096;2023-11-21T03:56:04;99102.88;;;3.30
76901;BMP280;65859;43.020;25.096;2023-11-21T03:58:50;99111.75;;;2.89
76901;BMP280;65859;43.020;25.096;2023-11-21T04:01:35;99117.78;;;2.80
76901;BMP280;65859;43.020;25.096;2023-11-21T04:04:19;99120.09;;;2.06
76901;BMP280;65859;43.020;25.096;2023-11-21T04:07:06;99127.13;;;2.01
76901;BMP280;65859;43.020;25.096;2023-11-21T04:09:51;99118.75;;;1.88
76901;BMP280;65859;43.020;25.096;2023-11-21T04:12:36;99121.09;;;2.20
76901;BMP280;65859;43.020;25.096;2023-11-21T04:15:21;99117.41;;;2.37
76901;BMP280;65859;43.020;25.096;2023-11-21T04:18:06;99113.06;;;2.87
76901;BMP280;65859;43.020;25.096;2023-11-21T04:20:50;99119.91;;;2.78
76901;BMP280;65859;43.020;25.096;2023-11-21T04:23:37;99116.31;;;2.63
76901;BMP280;65859;43.020;25.096;2023-11-21T04:26:21;99114.25;;;2.55
76901;BMP280;65859;43.020;25.096;2023-11-21T04:29:06;99125.47;;;2.61
76901;BMP280;65859;43.020;25.096;2023-11-21T04:31:50;99126.03;;;2.42
76901;BMP280;65859;43.020;25.096;2023-11-21T04:34:35;99126.63;;;2.14
76901;BMP280;65859;43.020;25.096;2023-11-21T04:37:19;99115.56;;;2.42
76901;BMP280;65859;43.020;25.096;2023-11-21T04:40:04;99096.91;;;2.69
76901;BMP280;65859;43.020;25.096;2023-11-21T04:42:51;99090.81;;;2.79
76901;BMP280;65859;43.020;25.096;2023-11-21T04:45:36;99098.41;;;2.86
76901;BMP280;65859;43.020;25.096;2023-11-21T04:48:21;99111.38;;;2.41
76901;BMP280;65859;43.020;25.096;2023-11-21T04:51:06;99109.59;;;1.96
76901;BMP280;65859;43.020;25.096;2023-11-21T04:53:52;99112.75;;;1.88
76901;BMP280;65859;43.020;25.096;2023-11-21T04:56:37;99098.09;;;1.71
76901;BMP280;65859;43.020;25.096;2023-11-21T04:59:21;99102.56;;;1.71
76901;BMP280;65859;43.020;25.096;2023-11-21T05:02:09;99109.63;;;1.86
76901;BMP280;65859;43.020;25.096;2023-11-21T05:04:54;99113.53;;;1.78
76901;BMP280;65859;43.020;25.096;2023-11-21T05:07:41;99119.28;;;2.21
76901;BMP280;65859;43.020;25.096;2023-11-21T05:10:26;99125.84;;;1.83
76901;BMP280;65859;43.020;25.096;2023-11-21T05:13:10;99127.91;;;1.96
76901;BMP280;65859;43.020;25.096;2023-11-21T05:15:55;99110.13;;;1.67
76901;BMP280;65859;43.020;25.096;2023-11-21T05:18:43;99153.81;;;2.23
76901;BMP280;65859;43.020;25.096;2023-11-21T05:21:28;99155.72;;;3.03
76901;BMP280;65859;43.020;25.096;2023-11-21T05:24:18;99150.25;;;2.94
76901;BMP280;65859;43.020;25.096;2023-11-21T05:27:03;99152.59;;;2.90
76901;BMP280;65859;43.020;25.096;2023-11-21T05:29:48;99166.69;;;3.05
76901;BMP280;65859;43.020;25.096;2023-11-21T05:32:35;99166.13;;;3.18
76901;BMP280;65859;43.020;25.096;2023-11-21T05:35:20;99165.66;;;3.06
76901;BMP280;65859;43.020;25.096;2023-11-21T05:38:05;99154.09;;;3.12
76901;BMP280;65859;43.020;25.096;2023-11-21T05:40:50;99142.34;;;3.09
76901;BMP280;65859;43.020;25.096;2023-11-21T05:43:34;99137.88;;;3.10
76901;BMP280;65859;43.020;25.096;2023-11-21T05:46:22;99137.72;;;2.81
76901;BMP280;65859;43.020;25.096;2023-11-21T05:49:07;99137.44;;;2.82
76901;BMP280;65859;43.020;25.096;2023-11-21T05:51:54;99139.81;;;2.79
76901;BMP280;65859;43.020;25.096;2023-11-21T05:54:40;99142.53;;;2.43
76901;BMP280;65859;43.020;25.096;2023-11-21T05:57:26;99145.66;;;2.55
76901;BMP280;65859;43.020;25.096;2023-11-21T06:00:12;99141.47;;;2.54
76901;BMP280;65859;43.020;25.096;2023-11-21T06:03:04;99148.56;;;2.33
76901;BMP280;65859;43.020;25.096;2023-11-21T06:05:51;99145.97;;;2.23
76901;BMP280;65859;43.020;25.096;2023-11-21T06:08:35;99141.72;;;2.42
76901;BMP280;65859;43.020;25.096;2023-11-21T06:11:20;99140.88;;;3.27
76901;BMP280;65859;43.020;25.096;2023-11-21T06:14:04;99140.13;;;3.27
76901;BMP280;65859;43.020;25.096;2023-11-21T06:16:52;99135.59;;;2.88
76901;BMP280;65859;43.020;25.096;2023-11-21T06:19:37;99144.88;;;2.50
76901;BMP280;65859;43.020;25.096;2023-11-21T06:22:22;99138.31;;;2.52
76901;BMP280;65859;43.020;25.096;2023-11-21T06:25:08;99139.19;;;3.07
76901;BMP280;65859;43.020;25.096;2023-11-21T06:27:53;99140.22;;;3.90
76901;BMP280;65859;43.020;25.096;2023-11-21T06:30:38;99142.56;;;4.20
76901;BMP280;65859;43.020;25.096;2023-11-21T06:33:23;99139.13;;;4.25
76901;BMP280;65859;43.020;25.096;2023-11-21T06:36:08;99142.00;;;4.53
76901;BMP280;65859;43.020;25.096;2023-11-21T06:38:56;99137.81;;;5.13
76901;BMP280;65859;43.020;25.096;2023-11-21T06:41:40;99136.41;;;5.21
76901;BMP280;65859;43.020;25.096;2023-11-21T06:44:25;99139.59;;;5.18
76901;BMP280;65859;43.020;25.096;2023-11-21T06:47:10;99132.22;;;5.20
76901;BMP280;65859;43.020;25.096;2023-11-21T06:49:58;99139.59;;;5.37
76901;BMP280;65859;43.020;25.096;2023-11-21T06:52:43;99137.22;;;5.73
76901;BMP280;65859;43.020;25.096;2023-11-21T06:55:29;99135.47;;;5.82
76901;BMP280;65859;43.020;25.096;2023-11-21T06:58:15;99145.72;;;5.32
76901;BMP280;65859;43.020;25.096;2023-11-21T07:01:00;99145.66;;;5.37
76901;BMP280;65859;43.020;25.096;2023-11-21T07:03:45;99156.88;;;5.24
76901;BMP280;65859;43.020;25.096;2023-11-21T07:06:30;99156.72;;;6.05
76901;BMP280;65859;43.020;25.096;2023-11-21T07:09:14;99158.88;;;6.16
76901;BMP280;65859;43.020;25.096;2023-11-21T07:12:00;99163.22;;;7.03
76901;BMP280;65859;43.020;25.096;2023-11-21T07:14:46;99158.34;;;7.11
76901;BMP280;65859;43.020;25.096;2023-11-21T07:17:31;99150.81;;;6.90
76901;BMP280;65859;43.020;25.096;2023-11-21T07:20:16;99144.78;;;6.90
76901;BMP280;65859;43.020;25.096;2023-11-21T07:23:01;99142.84;;;6.68
76901;BMP280;65859;43.020;25.096;2023-11-21T07:25:47;99144.00;;;7.25
76901;BMP280;65859;43.020;25.096;2023-11-21T07:28:32;99139.09;;;8.17
76901;BMP280;65859;43.020;25.096;2023-11-21T07:31:17;99139.84;;;7.47
76901;BMP280;65859;43.020;25.096;2023-11-21T07:34:01;99143.88;;;7.53
76901;BMP280;65859;43.020;25.096;2023-11-21T07:36:46;99144.13;;;7.65
76901;BMP280;65859;43.020;25.096;2023-11-21T07:39:31;99145.50;;;7.63
76901;BMP280;65859;43.020;25.096;2023-11-21T07:42:16;99138.34;;;7.63
76901;BMP280;65859;43.020;25.096;2023-11-21T07:45:01;99134.88;;;7.76
76901;BMP280;65859;43.020;25.096;2023-11-21T07:47:47;99130.56;;;7.36
76901;BMP280;65859;43.020;25.096;2023-11-21T07:50:31;99131.72;;;8.05
76901;BMP280;65859;43.020;25.096;2023-11-21T07:53:16;99131.50;;;7.93
76901;BMP280;65859;43.020;25.096;2023-11-21T07:56:04;99132.31;;;7.71
76901;BMP280;65859;43.020;25.096;2023-11-21T07:58:50;99132.00;;;7.95
76901;BMP280;65859;43.020;25.096;2023-11-21T08:01:34;99145.06;;;8.40
76901;BMP280;65859;43.020;25.096;2023-11-21T08:04:19;99142.03;;;9.89
76901;BMP280;65859;43.020;25.096;2023-11-21T08:07:04;99140.06;;;10.45
76901;BMP280;65859;43.020;25.096;2023-11-21T08:09:48;99119.91;;;9.38
76901;BMP280;65859;43.020;25.096;2023-11-21T08:12:34;99119.44;;;9.18
76901;BMP280;65859;43.020;25.096;2023-11-21T08:15:19;99124.41;;;10.52
76901;BMP280;65859;43.020;25.096;2023-11-21T08:18:04;99114.81;;;10.80
76901;BMP280;65859;43.020;25.096;2023-11-21T08:20:49;99109.53;;;10.60
76901;BMP280;65859;43.020;25.096;2023-11-21T08:23:34;99100.28;;;10.15
76901;BMP280;65859;43.020;25.096;2023-11-21T08:26:21;99109.69;;;10.75
76901;BMP280;65859;43.020;25.096;2023-11-21T08:29:06;99100.78;;;11.13
76901;BMP280;65859;43.020;25.096;2023-11-21T08:31:54;99095.41;;;10.89
76901;BMP280;65859;43.020;25.096;2023-11-21T08:34:39;99099.22;;;11.57
76901;BMP280;65859;43.020;25.096;2023-11-21T08:37:24;99101.28;;;12.13
76901;BMP280;65859;43.020;25.096;2023-11-21T08:40:11;99097.78;;;12.49
76901;BMP280;65859;43.020;25.096;2023-11-21T08:43:01;99095.28;;;12.68
76901;BMP280;65859;43.020;25.096;2023-11-21T08:45:49;99099.22;;;12.59
76901;BMP280;65859;43.020;25.096;2023-11-21T08:48:34;99093.28;;;13.88
76901;BMP280;65859;43.020;25.096;2023-11-21T08:51:20;99095.97;;;14.07
76901;BMP280;65859;43.020;25.096;2023-11-21T08:54:05;99084.63;;;15.14
76901;BMP280;65859;43.020;25.096;2023-11-21T08:56:54;99081.88;;;15.56
76901;BMP280;65859;43.020;25.096;2023-11-21T08:59:39;99078.19;;;15.15
76901;BMP280;65859;43.020;25.096;2023-11-21T09:02:26;99078.78;;;14.24
76901;BMP280;65859;43.020;25.096;2023-11-21T09:05:12;99074.06;;;14.17
76901;BMP280;65859;43.020;25.096;2023-11-21T09:07:57;99070.69;;;14.79
76901;BMP280;65859;43.020;25.096;2023-11-21T09:10:42;99071.34;;;15.67
76901;BMP280;65859;43.020;25.096;2023-11-21T09:13:29;99066.50;;;15.50
76901;BMP280;65859;43.020;25.096;2023-11-21T09:16:14;99062.31;;;16.46
76901;BMP280;65859;43.020;25.096;2023-11-21T09:19:00;99058.59;;;16.95
76901;BMP280;65859;43.020;25.096;2023-11-21T09:21:44;99050.88;;;17.48
76901;BMP280;65859;43.020;25.096;2023-11-21T09:24:29;99050.78;;;16.83
76901;BMP280;65859;43.020;25.096;2023-11-21T09:27:16;99047.69;;;16.03
76901;BMP280;65859;43.020;25.096;2023-11-21T09:30:02;99047.25;;;17.19
76901;BMP280;65859;43.020;25.096;2023-11-21T09:32:50;99031.97;;;17.20
76901;BMP280;65859;43.020;25.096;2023-11-21T09:35:35;99041.88;;;16.71
76901;BMP280;65859;43.020;25.096;2023-11-21T09:38:19;99024.38;;;16.37
76901;BMP280;65859;43.020;25.096;2023-11-21T09:41:05;99018.44;;;16.17
76901;BMP280;65859;43.020;25.096;2023-11-21T09:43:57;98996.41;;;16.78
76901;BMP280;65859;43.020;25.096;2023-11-21T09:46:48;98980.22;;;16.24
76901;BMP280;65859;43.020;25.096;2023-11-21T09:49:35;98979.03;;;15.54
76901;BMP280;65859;43.020;25.096;2023-11-21T09:52:27;98976.22;;;13.83
76901;BMP280;65859;43.020;25.096;2023-11-21T09:55:13;98966.34;;;14.45
76901;BMP280;65859;43.020;25.096;2023-11-21T09:58:06;98966.13;;;15.29
76901;BMP280;65859;43.020;25.096;2023-11-21T10:00:58;98995.91;;;18.08
76901;BMP280;65859;43.020;25.096;2023-11-21T10:03:44;99005.38;;;21.07
76901;BMP280;65859;43.020;25.096;2023-11-21T10:06:29;99013.91;;;22.86
76901;BMP280;65859;43.020;25.096;2023-11-21T10:09:16;98996.81;;;24.14
76901;BMP280;65859;43.020;25.096;2023-11-21T10:12:01;99001.63;;;26.20
76901;BMP280;65859;43.020;25.096;2023-11-21T10:14:49;99007.28;;;25.66
76901;BMP280;65859;43.020;25.096;2023-11-21T10:17:38;98981.19;;;25.17
76901;BMP280;65859;43.020;25.096;2023-11-21T10:20:27;98977.47;;;24.86
76901;BMP280;65859;43.020;25.096;2023-11-21T10:23:14;98983.50;;;27.13
76901;BMP280;65859;43.020;25.096;2023-11-21T10:26:02;98984.66;;;26.72
76901;BMP280;65859;43.020;25.096;2023-11-21T10:29:03;98949.31;;;25.69
76901;BMP280;65859;43.020;25.096;2023-11-21T10:31:50;98958.13;;;26.95
76901;BMP280;65859;43.020;25.096;2023-11-21T10:34:35;98963.22;;;28.27
76901;BMP280;65859;43.020;25.096;2023-11-21T10:37:20;98948.53;;;24.67
76901;BMP280;65859;43.020;25.096;2023-11-21T10:40:09;98947.31;;;26.29
76901;BMP280;65859;43.020;25.096;2023-11-21T10:43:06;98954.25;;;28.18
76901;BMP280;65859;43.020;25.096;2023-11-21T10:45:53;98945.41;;;28.59
76901;BMP280;65859;43.020;25.096;2023-11-21T10:48:42;98939.19;;;27.31
76901;BMP280;65859;43.020;25.096;2023-11-21T10:51:27;98936.34;;;28.35
76901;BMP280;65859;43.020;25.096;2023-11-21T10:54:13;98911.50;;;27.69
76901;BMP280;65859;43.020;25.096;2023-11-21T10:56:59;98919.31;;;29.15
76901;BMP280;65859;43.020;25.096;2023-11-21T10:59:47;98911.91;;;30.08
76901;BMP280;65859;43.020;25.096;2023-11-21T11:02:33;98908.66;;;30.68
76901;BMP280;65859;43.020;25.096;2023-11-21T11:05:20;98889.53;;;29.65
76901;BMP280;65859;43.020;25.096;2023-11-21T11:08:07;98878.97;;;29.73
76901;BMP280;65859;43.020;25.096;2023-11-21T11:10:53;98865.81;;;29.47
76901;BMP280;65859;43.020;25.096;2023-11-21T11:13:38;98860.59;;;27.75
76901;BMP280;65859;43.020;25.096;2023-11-21T11:16:28;98845.44;;;27.38
76901;BMP280;65859;43.020;25.096;2023-11-21T11:19:13;98826.13;;;23.94
76901;BMP280;65859;43.020;25.096;2023-11-21T11:27:56;98795.75;;;25.51
76901;BMP280;65859;43.020;25.096;2023-11-21T11:30:57;98800.19;;;25.80
76901;BMP280;65859;43.020;25.096;2023-11-21T11:34:04;98790.31;;;25.51
76901;BMP280;65859;43.020;25.096;2023-11-21T11:37:07;98794.72;;;27.40
76901;BMP280;65859;43.020;25.096;2023-11-21T11:39:55;98772.91;;;27.22
76901;BMP280;65859;43.020;25.096;2023-11-21T11:42:58;98802.13;;;27.21
76901;BMP280;65859;43.020;25.096;2023-11-21T11:45:47;98776.41;;;25.93
76901;BMP280;65859;43.020;25.096;2023-11-21T11:48:40;98749.78;;;24.08
76901;BMP280;65859;43.020;25.096;2023-11-21T11:51:25;98732.72;;;21.37
76901;BMP280;65859;43.020;25.096;2023-11-21T11:54:10;98716.38;;;19.31
76901;BMP280;65859;43.020;25.096;2023-11-21T11:56:55;98709.38;;;18.88
76901;BMP280;65859;43.020;25.096;2023-11-21T12:03:08;98687.53;;;17.78
76901;BMP280;65859;43.020;25.096;2023-11-21T12:05:53;98685.25;;;17.41
76901;BMP280;65859;43.020;25.096;2023-11-21T12:08:43;98686.78;;;17.27
76901;BMP280;65859;43.020;25.096;2023-11-21T12:11:32;98688.69;;;17.09
76901;BMP280;65859;43.020;25.096;2023-11-21T12:14:17;98677.13;;;16.76
76901;BMP280;65859;43.020;25.096;2023-11-21T12:17:02;98695.13;;;16.72
76901;BMP280;65859;43.020;25.096;2023-11-21T12:19:49;98699.31;;;16.70
76901;BMP280;65859;43.020;25.096;2023-11-21T12:22:37;98692.41;;;16.62
76901;BMP280;65859;43.020;25.096;2023-11-21T12:25:27;98699.19;;;16.38
76901;BMP280;65859;43.020;25.096;2023-11-21T12:28:18;98693.44;;;16.39
76901;BMP280;65859;43.020;25.096;2023-11-21T12:31:03;98689.56;;;16.26
76901;BMP280;65859;43.020;25.096;2023-11-21T12:33:50;98680.72;;;16.18
76901;BMP280;65859;43.020;25.096;2023-11-21T12:36:35;98678.41;;;16.13
76901;BMP280;65859;43.020;25.096;2023-11-21T12:39:20;98678.81;;;16.19
76901;BMP280;65859;43.020;25.096;2023-11-21T12:42:07;98675.28;;;16.04
76901;BMP280;65859;43.020;25.096;2023-11-21T12:48:06;98668.72;;;15.95
76901;BMP280;65859;43.020;25.096;2023-11-21T12:50:55;98667.50;;;15.85
76901;BMP280;65859;43.020;25.096;2023-11-21T12:53:41;98667.16;;;15.90
76901;BMP280;65859;43.020;25.096;2023-11-21T12:56:27;98674.03;;;15.87
76901;BMP280;65859;43.020;25.096;2023-11-21T12:59:13;98672.91;;;15.88
76901;BMP280;65859;43.020;25.096;2023-11-21T13:01:59;98671.75;;;15.89
76901;BMP280;65859;43.020;25.096;2023-11-21T13:04:53;98664.13;;;15.88
76901;BMP280;65859;43.020;25.096;2023-11-21T13:07:45;98661.44;;;15.92
76901;BMP280;65859;43.020;25.096;2023-11-21T13:10:32;98658.38;;;15.89
76901;BMP280;65859;43.020;25.096;2023-11-21T13:13:21;98655.72;;;15.93
76901;BMP280;65859;43.020;25.096;2023-11-21T13:16:06;98648.06;;;15.88
76901;BMP280;65859;43.020;25.096;2023-11-21T13:18:52;98646.16;;;15.88
76901;BMP280;65859;43.020;25.096;2023-11-21T13:21:37;98649.22;;;15.94
76901;BMP280;65859;43.020;25.096;2023-11-21T13:24:24;98646.88;;;15.85
76901;BMP280;65859;43.020;25.096;2023-11-21T13:27:11;98648.06;;;15.84
76901;BMP280;65859;43.020;25.096;2023-11-21T13:29:55;98652.13;;;15.71
76901;BMP280;65859;43.020;25.096;2023-11-21T13:32:41;98654.75;;;15.64
76901;BMP280;65859;43.020;25.096;2023-11-21T13:35:28;98654.75;;;15.60
76901;BMP280;65859;43.020;25.096;2023-11-21T13:38:18;98658.56;;;15.59
76901;BMP280;65859;43.020;25.096;2023-11-21T13:41:03;98659.31;;;15.56
76901;BMP280;65859;43.020;25.096;2023-11-21T13:43:52;98651.16;;;15.46
76901;BMP280;65859;43.020;25.096;2023-11-21T13:46:43;98663.28;;;15.32
76901;BMP280;65859;43.020;25.096;2023-11-21T13:49:30;98663.28;;;15.32
76901;BMP280;65859;43.020;25.096;2023-11-21T13:52:19;98656.09;;;15.37
76901;BMP280;65859;43.020;25.096;2023-11-21T13:55:07;98665.13;;;15.25
76901;BMP280;65859;43.020;25.096;2023-11-21T13:57:59;98660.16;;;15.23
76901;BMP280;65859;43.020;25.096;2023-11-21T14:00:45;98668.91;;;15.20
76901;BMP280;65859;43.020;25.096;2023-11-21T14:03:30;98665.97;;;15.32
76901;BMP280;65859;43.020;25.096;2023-11-21T14:06:36;98670.47;;;15.25
76901;BMP280;65859;43.020;25.096;2023-11-21T14:09:32;98673.41;;;15.13
76901;BMP280;65859;43.020;25.096;2023-11-21T14:12:28;98651.09;;;14.94
76901;BMP280;65859;43.020;25.096;2023-11-21T14:15:13;98673.75;;;15.08
76901;BMP280;65859;43.020;25.096;2023-11-21T14:18:01;98664.16;;;15.03
76901;BMP280;65859;43.020;25.096;2023-11-21T14:20:50;98665.28;;;15.02
76901;BMP280;65859;43.020;25.096;2023-11-21T14:23:35;98667.16;;;14.98
76901;BMP280;65859;43.020;25.096;2023-11-21T14:26:21;98665.94;;;14.92
76901;BMP280;65859;43.020;25.096;2023-11-21T14:29:09;98663.63;;;14.87
76901;BMP280;65859;43.020;25.096;2023-11-21T14:31:55;98651.06;;;14.91
76901;BMP280;65859;43.020;25.096;2023-11-21T14:34:42;98661.13;;;15.05
76901;BMP280;65859;43.020;25.096;2023-11-21T14:37:32;98658.81;;;15.03
76901;BMP280;65859;43.020;25.096;2023-11-21T14:40:17;98652.97;;;14.90
76901;BMP280;65859;43.020;25.096;2023-11-21T14:43:03;98656.75;;;14.86
76901;BMP280;65859;43.020;25.096;2023-11-21T14:45:50;98648.69;;;14.82
76901;BMP280;65859;43.020;25.096;2023-11-21T14:48:36;98657.59;;;14.93
76901;BMP280;65859;43.020;25.096;2023-11-21T14:51:30;98662.41;;;14.81
76901;BMP280;65859;43.020;25.096;2023-11-21T14:54:32;98644.41;;;14.44
76901;BMP280;65859;43.020;25.096;2023-11-21T14:57:29;98665.03;;;14.47
76901;BMP280;65859;43.020;25.096;2023-11-21T15:00:15;98662.72;;;14.42
76901;BMP280;65859;43.020;25.096;2023-11-21T15:03:20;98661.47;;;14.36
76901;BMP280;65859;43.020;25.096;2023-11-21T15:06:17;98660.34;;;14.37
76901;BMP280;65859;43.020;25.096;2023-11-21T15:09:12;98656.47;;;14.31
76901;BMP280;65859;43.020;25.096;2023-11-21T15:11:57;98660.66;;;14.32
76901;BMP280;65859;43.020;25.096;2023-11-21T15:14:50;98657.13;;;14.24
76901;BMP280;65859;43.020;25.096;2023-11-21T15:17:38;98656.66;;;14.18
76901;BMP280;65859;43.020;25.096;2023-11-21T15:20:27;98656.78;;;13.99
76901;BMP280;65859;43.020;25.096;2023-11-21T15:23:12;98651.91;;;14.05
76901;BMP280;65859;43.020;25.096;2023-11-21T15:26:01;98649.97;;;14.02
76901;BMP280;65859;43.020;25.096;2023-11-21T15:28:48;98650.47;;;14.11
76901;BMP280;65859;43.020;25.096;2023-11-21T15:31:33;98655.66;;;14.00
76901;BMP280;65859;43.020;25.096;2023-11-21T15:34:18;98662.84;;;13.96
76901;BMP280;65859;43.020;25.096;2023-11-21T15:37:03;98665.88;;;13.95
76901;BMP280;65859;43.020;25.096;2023-11-21T15:39:50;98659.28;;;13.88
76901;BMP280;65859;43.020;25.096;2023-11-21T15:42:35;98660.44;;;13.87
76901;BMP280;65859;43.020;25.096;2023-11-21T15:45:21;98660.13;;;13.66
76901;BMP280;65859;43.020;25.096;2023-11-21T15:48:08;98663.84;;;13.62
76901;BMP280;65859;43.020;25.096;2023-11-21T15:50:54;98659.53;;;13.53
76901;BMP280;65859;43.020;25.096;2023-11-21T15:53:42;98660.81;;;13.63
76901;BMP280;65859;43.020;25.096;2023-11-21T15:56:27;98670.50;;;13.71
76901;BMP280;65859;43.020;25.096;2023-11-21T15:59:12;98671.41;;;13.82
76901;BMP280;65859;43.020;25.096;2023-11-21T16:01:59;98674.38;;;13.54
76901;BMP280;65859;43.020;25.096;2023-11-21T16:04:44;98669.16;;;13.62
76901;BMP280;65859;43.020;25.096;2023-11-21T16:07:28;98671.50;;;13.67